Latest Weather Observations for Munglinup West

IDW60801

Issued at 10:04 am WST Sunday 28 August 2016 (issued every 30 minutes, with the page automatically refreshed every 10 minutes)

About weather observations | Map of weather stations | Latest weather observations for WA | Other Formats
Station Details ID: 012044 Name: MUNGLINUP WEST Lat: -33.55 Lon: 120.70 Height: 220.0 m
Data from the previous 72 hours. | See also: Recent months at Munglinup West
Date/Time
WST
Temp
°C
App
Temp
°C
Dew
Point
°C
Rel
Hum
%
Delta-T
°C
Wind Press
QNH
hPa
Press
MSL
hPa
Rain since
9am
mm
Dir  Spd
km/h
Gust
km/h
Spd
kts
Gust
kts
28/10:00am 11.0 7.2 11.0 100 0.0 W 22 33 12 18 999.7 999.6 0.6
28/09:30am 11.3 6.8 11.3 100 0.0 W 26 39 14 21 999.5 999.4 0.0
28/09:00am 10.4 5.6 10.4 100 0.0 W 26 37 14 20 999.4 999.3 1.6
28/08:30am 9.6 5.3 9.5 99 0.1 WNW 22 37 12 20 999.2 999.1 1.4
28/08:00am 9.6 5.3 9.3 98 0.2 WNW 22 33 12 18 998.9 998.8 1.4
28/07:30am 9.6 4.8 9.0 96 0.3 WNW 24 39 13 21 998.7 998.6 1.2
28/07:00am 9.6 4.8 8.7 94 0.4 WNW 24 43 13 23 998.4 998.3 1.2
28/06:30am 9.5 5.0 8.7 95 0.4 WNW 22 35 12 19 998.1 998.0 1.2
28/06:00am 9.8 4.9 8.6 92 0.6 WNW 24 35 13 19 997.8 997.7 1.2
28/05:30am 9.9 4.3 8.7 92 0.6 WNW 28 37 15 20 997.3 997.2 1.2
28/05:00am 9.8 4.5 8.6 92 0.6 W 26 35 14 19 997.0 996.9 1.2
28/04:30am 10.0 5.2 8.9 93 0.5 W 24 39 13 21 996.9 996.8 1.2
28/04:00am 9.8 5.0 9.0 95 0.4 WNW 24 35 13 19 996.8 996.6 1.2
28/03:30am 9.7 5.0 9.1 96 0.3 WNW 24 37 13 20 996.6 996.4 1.2
28/03:00am 9.8 5.0 8.9 94 0.5 WNW 24 39 13 21 996.5 996.3 1.0
28/02:30am 9.9 4.7 9.0 94 0.4 WNW 26 43 14 23 996.3 996.1 1.0
28/02:00am 10.2 5.1 9.1 93 0.6 WNW 26 39 14 21 996.3 996.1 1.0
28/01:30am 9.7 4.2 9.1 96 0.3 WNW 28 48 15 26 996.4 996.2 1.0
28/01:01am 10.2 4.0 9.3 94 0.5 WNW 32 50 17 27 996.4 996.2 1.0
28/01:00am 10.2 3.8 9.3 94 0.5 NW 33 50 18 27 996.4 996.2 1.0
28/12:53am 10.2 4.0 9.4 95 0.4 NW 32 50 17 27 996.4 996.2 1.0
28/12:30am 10.3 4.1 9.4 94 0.5 NW 32 46 17 25 996.4 996.2 1.0
28/12:00am 9.9 4.5 9.4 97 0.3 NNW 28 43 15 23 996.4 996.2 1.0
 
Date/Time
WST
Temp
°C
App
Temp
°C
Dew
Point
°C
Rel
Hum
%
Delta-T
°C
Wind Press
QNH
hPa
Press
MSL
hPa
Rain since
9am
mm
Dir  Spd
km/h
Gust
km/h
Spd
kts
Gust
kts
27/11:35pm 10.1 4.2 9.2 94 0.5 NNW 30 50 16 27 996.7 996.5 1.0
27/11:30pm 10.2 3.9 8.8 91 0.7 NW 32 50 17 27 996.7 996.5 1.0
27/11:15pm 11.0 4.6 8.6 85 1.2 NW 32 50 17 27 996.8 996.6 1.0
27/11:00pm 11.1 5.4 8.5 84 1.3 NW 28 43 15 23 997.0 996.9 1.0
27/10:30pm 11.0 4.9 8.1 82 1.4 NW 30 41 16 22 997.3 997.2 1.0
27/10:00pm 11.0 5.2 7.9 81 1.5 NW 28 48 15 26 997.9 997.8 1.0
27/09:57pm 11.1 5.3 8.0 81 1.5 NW 28 48 15 26 998.0 997.9 1.0
27/09:30pm 11.4 5.9 7.7 78 1.8 NW 26 41 14 22 998.4 998.3 1.0
27/09:00pm 11.6 6.7 8.3 80 1.7 NNW 24 39 13 21 998.3 998.2 1.0
27/08:30pm 11.2 6.9 9.3 88 1.0 NNW 22 33 12 18 998.5 998.4 1.0
27/08:00pm 11.0 7.3 9.6 91 0.7 N 19 30 10 16 998.6 998.5 1.0
27/07:30pm 11.9 8.0 9.6 86 1.2 NNW 20 35 11 19 999.0 998.9 1.0
27/07:00pm 12.6 8.5 10.1 85 1.3 NNW 22 32 12 17 999.0 998.9 1.0
27/06:30pm 13.7 9.0 10.5 81 1.7 NNW 26 43 14 23 998.5 998.4 1.0
27/06:14pm 14.6 9.3 10.0 74 2.4 N 28 50 15 27 998.5 998.4 1.0
27/06:00pm 14.7 10.5 9.7 72 2.6 N 22 33 12 18 998.4 998.3 1.0
27/05:30pm 14.9 10.2 3.1 45 5.4 NNW 17 28 9 15 998.5 998.4 1.0
27/05:00pm 15.9 11.2 9.1 64 3.6 NNW 24 37 13 20 998.5 998.4 1.0
27/04:30pm 17.3 12.3 9.7 61 4.0 NW 26 44 14 24 998.3 998.2 1.0
27/04:00pm 16.6 11.7 10.0 65 3.5 NW 26 41 14 22 998.4 998.3 1.0
27/03:30pm 16.7 10.6 8.1 57 4.4 NW 30 44 16 24 998.5 998.4 1.0
27/03:00pm 16.8 11.3 9.2 61 4.0 NW 28 43 15 23 998.8 998.7 1.0
27/02:43pm 17.1 11.8 9.8 62 3.9 NW 28 48 15 26 998.8 998.7 1.0
27/02:30pm 16.9 12.3 11.0 68 3.2 NW 26 39 14 21 999.1 999.0 1.0
27/02:00pm 16.5 10.3 7.7 56 4.5 NW 30 50 16 27 999.5 999.4 1.0
27/01:49pm 16.8 11.2 8.8 59 4.2 NW 28 46 15 25 999.4 999.3 1.0
27/01:30pm 15.7 10.9 10.2 70 2.9 NW 26 39 14 21 999.7 999.6 1.0
27/01:00pm 15.7 11.2 11.5 76 2.3 NW 26 39 14 21 1000.1 1000.0 1.0
27/12:45pm 14.9 10.0 11.3 79 1.9 WNW 28 48 15 26 1000.3 1000.2 1.0
27/12:30pm 14.6 10.3 12.1 85 1.4 WNW 26 39 14 21 1000.2 1000.1 1.0
27/12:09pm 14.0 9.4 12.4 90 0.9 NW 28 50 15 27 1000.7 1000.6 1.0
27/12:00pm 13.1 8.6 12.5 96 0.3 NW 28 44 15 24 1000.9 1000.8 1.0
27/11:54am 12.1 7.3 11.6 97 0.3 NW 28 46 15 25 1001.1 1001.0 1.0
27/11:30am 12.1 8.9 11.8 98 0.2 NW 20 33 11 18 1001.2 1001.1 0.6
27/11:00am 12.1 10.3 12.1 100 0.0 NW 13 22 7 12 999.4 999.3 0.6
27/10:54am 12.0 9.0 11.8 99 0.1 NW 19 33 10 18 1000.2 1000.1 0.6
27/10:30am 11.9 7.0 11.4 97 0.3 NW 28 43 15 23 1002.3 1002.2 0.6
27/10:00am 12.1 9.0 12.1 100 0.0 NNW 20 30 11 16 1001.6 1001.5 0.4
27/09:30am 11.6 8.8 11.3 98 0.2 NW 17 26 9 14 1001.6 1001.5 0.2
27/09:00am 11.8 9.0 10.0 89 0.9 NW 15 28 8 15 1002.3 1002.2 0.2
27/08:30am 12.0 8.0 8.3 78 1.8 NNW 19 28 10 15 1001.8 1001.7 0.0
27/08:00am 12.0 8.5 8.7 80 1.7 N 17 24 9 13 1001.8 1001.7 0.0
27/07:30am 11.6 8.6 7.9 78 1.8 NNW 13 17 7 9 1001.4 1001.3 0.0
27/07:00am 11.6 7.9 6.5 71 2.5 NNW 15 24 8 13 1001.7 1001.6 0.0
27/06:30am 11.9 8.2 2.6 53 4.1 NNW 11 15 6 8 1002.0 1001.9 0.0
27/06:00am 11.8 8.8 6.1 68 2.7 N 11 17 6 9 1001.2 1001.1 0.0
27/05:30am 10.7 7.6 5.7 71 2.3 NNE 11 15 6 8 1001.7 1001.6 0.0
27/05:00am 11.5 7.7 4.0 60 3.4 NNE 13 20 7 11 1001.0 1000.9 0.0
27/04:30am 12.6 9.2 4.1 56 3.9 N 11 22 6 12 1001.5 1001.4 0.0
27/04:00am 12.9 8.3 3.6 53 4.2 N 17 22 9 12 1002.0 1001.9 0.0
27/03:30am 13.2 8.0 3.3 51 4.5 N 20 28 11 15 1001.8 1001.7 0.0
27/03:00am 12.5 8.0 4.0 56 3.9 NNE 17 24 9 13 1001.9 1001.8 0.0
27/02:30am 13.0 7.8 3.7 53 4.2 NNE 20 28 11 15 1002.3 1002.2 0.0
27/02:00am 12.0 6.8 3.8 57 3.7 NNE 20 32 11 17 1002.8 1002.7 0.0
27/01:30am 11.3 6.3 3.8 60 3.4 NNE 19 24 10 13 1003.4 1003.3 0.0
27/01:00am 10.8 5.9 4.0 63 3.1 NE 19 24 10 13 1003.7 1003.6 0.0
27/12:30am 10.4 5.5 4.1 65 2.8 NE 19 26 10 14 1004.3 1004.2 0.0
27/12:00am 10.7 7.6 3.7 62 3.1 N 9 19 5 10 1005.6 1005.5 0.0
 
Date/Time
WST
Temp
°C
App
Temp
°C
Dew
Point
°C
Rel
Hum
%
Delta-T
°C
Wind Press
QNH
hPa
Press
MSL
hPa
Rain since
9am
mm
Dir  Spd
km/h
Gust
km/h
Spd
kts
Gust
kts
26/11:30pm 11.1 6.2 3.9 61 3.2 NE 19 24 10 13 1005.3 1005.3 0.0
26/11:00pm 11.9 6.3 3.7 57 3.7 NE 22 28 12 15 1005.8 1005.7 0.0
26/10:30pm 11.7 6.6 4.0 59 3.5 NE 20 28 11 15 1006.2 1006.1 0.0
26/10:00pm 12.2 6.7 3.9 57 3.8 NNE 22 30 12 16 1006.6 1006.5 0.0
26/09:30pm 12.8 6.9 3.7 54 4.1 NNE 24 32 13 17 1006.9 1006.8 0.0
26/09:00pm 13.3 7.4 3.7 52 4.4 NNE 24 33 13 18 1007.5 1007.4 0.0
26/08:30pm 13.5 7.6 3.8 52 4.4 NNE 24 30 13 16 1007.8 1007.7 0.0
26/08:00pm 13.7 8.2 3.8 51 4.6 NNE 22 30 12 16 1008.5 1008.5 0.0
26/07:30pm 14.2 8.6 3.7 49 4.8 NNE 22 32 12 17 1008.9 1008.9 0.0
26/07:00pm 14.5 8.9 3.6 48 5.0 NNE 22 33 12 18 1009.0 1009.0 0.0
26/06:30pm 15.3 10.0 3.1 44 5.6 NNE 20 28 11 15 1009.4 1009.4 0.0
26/06:00pm 15.7 10.4 3.2 43 5.8 N 20 32 11 17 1009.4 1009.4 0.0
26/05:30pm 16.4 11.2 3.5 42 6.0 N 20 33 11 18 1009.4 1009.4 0.0
26/05:00pm 17.2 12.6 3.8 41 6.3 N 17 24 9 13 1009.6 1009.6 0.0
26/04:30pm 17.8 13.3 4.0 40 6.6 N 17 28 9 15 1009.7 1009.7 0.0
26/04:00pm 18.4 12.8 3.5 37 7.1 N 22 32 12 17 1009.9 1009.9 0.0
26/03:30pm 19.7 12.4 2.6 32 8.0 N 30 43 16 23 1010.0 1010.0 0.0
26/03:00pm 21.4 14.7 3.6 31 8.6 NNW 28 41 15 22 1010.0 1010.0 0.0
26/02:30pm 20.9 15.1 4.5 34 8.1 N 24 39 13 21 1010.5 1010.4 0.0
26/02:00pm 19.1 14.3 4.8 39 7.0 N 19 32 10 17 1010.9 1010.8 0.0
26/01:30pm 18.0 12.2 4.2 40 6.6 N 24 39 13 21 1011.5 1011.4 0.0
26/01:00pm 17.8 10.7 3.3 38 6.8 N 30 44 16 24 1012.4 1012.4 0.0
26/12:30pm 18.9 11.9 4.3 38 7.0 N 30 43 16 23 1012.8 1012.8 0.0
26/12:00pm 18.4 11.4 4.2 39 6.8 N 30 44 16 24 1013.2 1013.2 0.0
26/11:30am 18.3 11.4 4.5 40 6.7 N 30 46 16 25 1014.2 1014.2 0.0
26/11:00am 17.8 10.9 4.4 41 6.4 N 30 48 16 26 1014.7 1014.7 0.0
26/10:41am 16.9 9.3 3.9 42 6.1 N 33 52 18 28 1015.3 1015.2 0.0
26/10:30am 16.8 9.4 3.8 42 6.1 N 32 44 17 24 1015.5 1015.4 0.0
26/10:06am 16.1 8.8 4.5 46 5.5 N 32 52 17 28 1015.9 1015.8 0.0
26/10:00am 15.7 8.8 4.7 48 5.2 N 30 43 16 23 1015.9 1015.8 0.0
26/09:30am 13.5 7.0 4.6 55 4.1 N 28 48 15 26 1016.3 1016.3 0.0
26/09:25am 13.1 6.6 4.8 57 3.9 N 28 48 15 26 1016.4 1016.4 0.0
26/09:00am 12.8 6.8 5.2 60 3.6 N 26 43 14 23 1016.9 1016.9 0.0
26/08:30am 10.4 4.4 5.4 71 2.3 N 26 37 14 20 1017.5 1017.5 0.0
26/08:00am 8.8 2.8 5.5 80 1.5 NNE 26 37 14 20 1017.4 1017.4 0.0
26/07:30am 7.9 1.5 5.0 82 1.3 NNE 28 39 15 21 1017.6 1017.6 0.0
26/07:00am 7.8 1.4 5.1 83 1.2 NNE 28 39 15 21 1017.3 1017.3 0.0
26/06:30am 7.3 1.6 5.1 86 1.0 NNE 24 32 13 17 1017.9 1017.9 0.0
26/06:00am 6.9 1.3 5.2 89 0.8 NNE 24 33 13 18 1018.0 1018.0 0.0
26/05:30am 6.4 0.8 5.2 92 0.5 NNE 24 32 13 17 1018.0 1018.0 0.0
26/05:00am 6.1 0.8 4.9 92 0.5 NNE 22 28 12 15 1018.7 1018.7 0.0
26/04:30am 6.2 0.9 5.0 92 0.5 NNE 22 32 12 17 1019.3 1019.3 0.0
26/04:00am 6.0 1.0 4.8 92 0.5 NNE 20 28 11 15 1019.1 1019.1 0.0
26/03:30am 5.9 1.1 4.7 92 0.5 NNE 19 26 10 14 1019.6 1019.6 0.0
26/03:00am 5.6 1.1 4.4 92 0.5 NE 17 22 9 12 1019.8 1019.7 0.0
26/02:30am 5.8 1.3 4.4 91 0.6 NE 17 24 9 13 1020.5 1020.5 0.0
26/02:00am 5.6 1.5 4.2 91 0.6 NNE 15 22 8 12 1020.9 1020.9 0.0
26/01:30am 5.4 1.6 3.9 90 0.6 NNE 13 17 7 9 1021.2 1021.2 0.0
26/01:00am 5.2 1.4 3.7 90 0.6 NNE 13 17 7 9 1021.5 1021.5 0.0
26/12:30am 6.0 1.9 4.2 88 0.8 NNE 15 19 8 10 1021.8 1021.8 0.0
26/12:00am 6.2 2.5 4.5 89 0.7 NE 13 17 7 9 1022.2 1022.2 0.0
 
Date/Time
WST
Temp
°C
App
Temp
°C
Dew
Point
°C
Rel
Hum
%
Delta-T
°C
Wind Press
QNH
hPa
Press
MSL
hPa
Rain since
9am
mm
Dir  Spd
km/h
Gust
km/h
Spd
kts
Gust
kts
25/11:30pm 6.1 2.4 4.3 88 0.8 NE 13 19 7 10 1022.4 1022.4 0.0
25/11:00pm 6.1 2.8 4.4 89 0.7 NNE 11 15 6 8 1022.5 1022.5 0.0
25/10:30pm 6.6 3.3 4.6 87 0.9 NNE 11 13 6 7 1022.7 1022.7 0.0
25/10:00pm 6.9 3.6 4.7 86 1.0 NNE 11 13 6 7 1022.8 1022.8 0.0
25/09:30pm 7.3 4.1 5.0 85 1.0 NNE 11 13 6 7 1023.0 1023.0 0.0
25/09:00pm 8.6 5.1 5.4 80 1.5 NE 13 17 7 9 1023.1 1023.1 0.0
25/08:30pm 9.3 5.5 5.7 78 1.7 NE 15 20 8 11 1023.2 1023.2 0.0
25/08:00pm 9.8 6.0 6.0 77 1.8 NE 15 19 8 10 1023.3 1023.3 0.0
25/07:30pm 9.9 5.8 6.4 79 1.6 ENE 17 22 9 12 1023.4 1023.4 0.0
25/07:00pm 10.4 6.9 7.1 80 1.6 ENE 15 20 8 11 1023.5 1023.5 0.0
25/06:30pm 11.2 8.2 7.5 78 1.8 ENE 13 17 7 9 1023.6 1023.6 0.0
25/06:00pm 11.0 8.2 6.9 76 2.0 ENE 11 15 6 8 1023.5 1023.5 0.0
25/05:30pm 11.8 9.0 6.9 72 2.4 ENE 11 17 6 9 1023.3 1023.3 0.0
25/05:00pm 13.4 9.5 7.0 65 3.1 ENE 17 22 9 12 1023.2 1023.2 0.0
25/04:30pm 14.4 10.4 6.5 59 3.9 ENE 17 28 9 15 1023.3 1023.3 0.0
25/04:00pm 14.9 11.0 7.0 59 3.9 NE 17 26 9 14 1023.4 1023.4 0.0
25/03:30pm 15.2 11.0 7.3 59 3.9 ENE 19 28 10 15 1023.4 1023.4 0.0
25/03:00pm 14.4 10.5 7.0 61 3.6 ENE 17 24 9 13 1023.6 1023.6 0.0
25/02:30pm 15.2 11.0 7.5 60 3.9 NE 19 26 10 14 1023.9 1024.0 0.0
25/02:00pm 14.8 11.0 7.4 61 3.7 ENE 17 28 9 15 1024.1 1024.2 0.0
25/01:30pm 15.3 11.6 7.8 61 3.8 ENE 17 24 9 13 1024.6 1024.6 0.0
25/01:00pm 14.6 11.1 7.2 61 3.7 ENE 15 26 8 14 1025.2 1025.2 0.0
25/12:30pm 14.3 10.5 7.6 64 3.3 ENE 17 26 9 14 1025.7 1025.7 0.0
25/12:00pm 14.0 10.0 6.8 62 3.5 ENE 17 24 9 13 1026.2 1026.2 0.0
25/11:30am 13.8 10.3 7.1 64 3.3 ENE 15 24 8 13 1026.8 1026.8 0.0
25/11:00am 12.9 9.2 6.3 64 3.2 NE 15 24 8 13 1027.3 1027.3 0.0
25/10:30am 11.9 7.8 6.2 68 2.7 NE 17 24 9 13 1027.5 1027.5 0.0

Other Formats:

Comma delimited format used in spreadsheet applications
http://www.bom.gov.au/fwo/IDW60801/IDW60801.95644.axf

JavaScript Object Notation format (JSON) in row-major order
http://www.bom.gov.au/fwo/IDW60801/IDW60801.95644.json